sensor_id;sensor_type;location;lat;lon;timestamp;pressure;altitude;pressure_sealevel;temperature;humidity
61478;BME280;47345;52.334;10.392;2023-08-24T00:00:11;101096.80;;;17.71;78.54
61478;BME280;47345;52.334;10.392;2023-08-24T00:02:42;101095.63;;;17.70;78.55
61478;BME280;47345;52.334;10.392;2023-08-24T00:05:13;101099.35;;;17.68;78.61
61478;BME280;47345;52.334;10.392;2023-08-24T00:07:44;101096.45;;;17.67;78.71
61478;BME280;47345;52.334;10.392;2023-08-24T00:10:15;101092.64;;;17.68;78.81
61478;BME280;47345;52.334;10.392;2023-08-24T00:12:47;101096.56;;;17.67;78.78
61478;BME280;47345;52.334;10.392;2023-08-24T00:15:18;101097.98;;;17.67;78.73
61478;BME280;47345;52.334;10.392;2023-08-24T00:17:49;101094.80;;;17.65;78.74
61478;BME280;47345;52.334;10.392;2023-08-24T00:20:21;101093.83;;;17.66;78.92
61478;BME280;47345;52.334;10.392;2023-08-24T00:22:52;101089.75;;;17.67;78.95
61478;BME280;47345;52.334;10.392;2023-08-24T00:25:23;101089.59;;;17.67;78.86
61478;BME280;47345;52.334;10.392;2023-08-24T00:27:55;101087.52;;;17.66;78.88
61478;BME280;47345;52.334;10.392;2023-08-24T00:30:26;101087.63;;;17.66;79.02
61478;BME280;47345;52.334;10.392;2023-08-24T00:32:56;101090.61;;;17.65;78.89
61478;BME280;47345;52.334;10.392;2023-08-24T00:35:27;101086.40;;;17.63;78.72
61478;BME280;47345;52.334;10.392;2023-08-24T00:37:58;101087.90;;;17.61;78.70
61478;BME280;47345;52.334;10.392;2023-08-24T00:40:29;101097.23;;;17.56;78.69
61478;BME280;47345;52.334;10.392;2023-08-24T00:43:00;101111.17;;;17.45;78.14
61478;BME280;47345;52.334;10.392;2023-08-24T00:45:31;101113.85;;;17.26;78.65
61478;BME280;47345;52.334;10.392;2023-08-24T00:48:05;101116.45;;;17.11;79.42
61478;BME280;47345;52.334;10.392;2023-08-24T00:50:36;101111.61;;;16.98;79.85
61478;BME280;47345;52.334;10.392;2023-08-24T00:53:07;101107.30;;;16.91;80.42
61478;BME280;47345;52.334;10.392;2023-08-24T00:55:38;101111.73;;;16.91;80.88
61478;BME280;47345;52.334;10.392;2023-08-24T00:58:09;101109.55;;;16.92;81.03
61478;BME280;47345;52.334;10.392;2023-08-24T01:00:40;101110.64;;;16.94;81.32
61478;BME280;47345;52.334;10.392;2023-08-24T01:03:11;101110.19;;;16.97;81.27
61478;BME280;47345;52.334;10.392;2023-08-24T01:05:42;101109.05;;;16.99;80.95
61478;BME280;47345;52.334;10.392;2023-08-24T01:08:14;101108.73;;;17.00;81.14
61478;BME280;47345;52.334;10.392;2023-08-24T01:10:51;101112.44;;;17.02;81.02
61478;BME280;47345;52.334;10.392;2023-08-24T01:13:31;101102.02;;;17.03;81.16
61478;BME280;47345;52.334;10.392;2023-08-24T01:16:10;101098.62;;;17.02;81.02
61478;BME280;47345;52.334;10.392;2023-08-24T01:18:44;101097.52;;;16.99;80.94
61478;BME280;47345;52.334;10.392;2023-08-24T01:21:15;101095.09;;;17.00;81.06
61478;BME280;47345;52.334;10.392;2023-08-24T01:23:53;101093.86;;;17.02;80.97
61478;BME280;47345;52.334;10.392;2023-08-24T01:26:23;101093.10;;;17.04;81.00
61478;BME280;47345;52.334;10.392;2023-08-24T01:28:55;101098.67;;;17.04;81.06
61478;BME280;47345;52.334;10.392;2023-08-24T01:31:26;101096.00;;;17.06;81.10
61478;BME280;47345;52.334;10.392;2023-08-24T01:33:57;101101.77;;;17.06;80.87
61478;BME280;47345;52.334;10.392;2023-08-24T01:36:29;101097.23;;;17.08;81.01
61478;BME280;47345;52.334;10.392;2023-08-24T01:39:12;101092.89;;;17.10;80.94
61478;BME280;47345;52.334;10.392;2023-08-24T01:41:48;101094.08;;;17.14;80.88
61478;BME280;47345;52.334;10.392;2023-08-24T01:44:21;101091.77;;;17.15;80.93
61478;BME280;47345;52.334;10.392;2023-08-24T01:46:56;101093.02;;;17.14;80.38
61478;BME280;47345;52.334;10.392;2023-08-24T01:49:28;101091.61;;;17.08;79.61
61478;BME280;47345;52.334;10.392;2023-08-24T01:52:00;101094.24;;;16.99;79.34
61478;BME280;47345;52.334;10.392;2023-08-24T01:54:32;101088.40;;;16.90;79.42
61478;BME280;47345;52.334;10.392;2023-08-24T01:57:05;101086.91;;;16.86;79.83
61478;BME280;47345;52.334;10.392;2023-08-24T01:59:36;101080.30;;;16.84;80.40
61478;BME280;47345;52.334;10.392;2023-08-24T02:02:07;101077.13;;;16.83;80.45
61478;BME280;47345;52.334;10.392;2023-08-24T02:04:38;101071.56;;;16.81;80.39
61478;BME280;47345;52.334;10.392;2023-08-24T02:07:09;101076.85;;;16.80;80.31
61478;BME280;47345;52.334;10.392;2023-08-24T02:09:40;101075.14;;;16.78;80.44
61478;BME280;47345;52.334;10.392;2023-08-24T02:12:10;101072.89;;;16.76;80.63
61478;BME280;47345;52.334;10.392;2023-08-24T02:14:41;101070.92;;;16.75;80.93
61478;BME280;47345;52.334;10.392;2023-08-24T02:17:12;101068.37;;;16.75;81.08
61478;BME280;47345;52.334;10.392;2023-08-24T02:19:43;101064.27;;;16.74;81.18
61478;BME280;47345;52.334;10.392;2023-08-24T02:22:14;101060.20;;;16.73;81.22
61478;BME280;47345;52.334;10.392;2023-08-24T02:24:45;101062.70;;;16.71;81.12
61478;BME280;47345;52.334;10.392;2023-08-24T02:27:16;101060.15;;;16.68;80.72
61478;BME280;47345;52.334;10.392;2023-08-24T02:29:46;101059.14;;;16.63;80.05
61478;BME280;47345;52.334;10.392;2023-08-24T02:32:18;101052.25;;;16.56;79.98
61478;BME280;47345;52.334;10.392;2023-08-24T02:34:49;101051.96;;;16.53;80.45
61478;BME280;47345;52.334;10.392;2023-08-24T02:37:19;101051.01;;;16.50;81.03
61478;BME280;47345;52.334;10.392;2023-08-24T02:39:50;101053.52;;;16.49;81.31
61478;BME280;47345;52.334;10.392;2023-08-24T02:42:21;101048.31;;;16.48;81.14
61478;BME280;47345;52.334;10.392;2023-08-24T02:44:53;101042.02;;;16.46;80.68
61478;BME280;47345;52.334;10.392;2023-08-24T02:47:23;101039.86;;;16.41;80.16
61478;BME280;47345;52.334;10.392;2023-08-24T02:49:54;101043.30;;;16.36;80.28
61478;BME280;47345;52.334;10.392;2023-08-24T02:52:25;101043.96;;;16.32;80.09
61478;BME280;47345;52.334;10.392;2023-08-24T02:54:56;101049.65;;;16.28;80.32
61478;BME280;47345;52.334;10.392;2023-08-24T02:57:26;101046.29;;;16.26;80.83
61478;BME280;47345;52.334;10.392;2023-08-24T02:59:57;101039.48;;;16.27;80.97
61478;BME280;47345;52.334;10.392;2023-08-24T03:02:28;101035.02;;;16.27;80.71
61478;BME280;47345;52.334;10.392;2023-08-24T03:04:59;101041.98;;;16.24;80.56
61478;BME280;47345;52.334;10.392;2023-08-24T03:07:30;101034.23;;;16.19;80.76
61478;BME280;47345;52.334;10.392;2023-08-24T03:10:01;101040.86;;;16.22;81.43
61478;BME280;47345;52.334;10.392;2023-08-24T03:12:33;101041.50;;;16.26;81.50
61478;BME280;47345;52.334;10.392;2023-08-24T03:15:05;101034.52;;;16.26;81.61
61478;BME280;47345;52.334;10.392;2023-08-24T03:17:36;101030.69;;;16.27;81.55
61478;BME280;47345;52.334;10.392;2023-08-24T03:20:10;101033.01;;;16.27;81.74
61478;BME280;47345;52.334;10.392;2023-08-24T03:22:41;101034.73;;;16.27;81.56
61478;BME280;47345;52.334;10.392;2023-08-24T03:25:12;101034.02;;;16.25;81.69
61478;BME280;47345;52.334;10.392;2023-08-24T03:27:43;101030.76;;;16.25;81.66
61478;BME280;47345;52.334;10.392;2023-08-24T03:30:15;101033.68;;;16.22;81.55
61478;BME280;47345;52.334;10.392;2023-08-24T03:32:46;101039.52;;;16.19;81.61
61478;BME280;47345;52.334;10.392;2023-08-24T03:35:17;101035.41;;;16.16;81.84
61478;BME280;47345;52.334;10.392;2023-08-24T03:37:48;101036.05;;;16.16;81.93
61478;BME280;47345;52.334;10.392;2023-08-24T03:40:18;101032.47;;;16.11;81.86
61478;BME280;47345;52.334;10.392;2023-08-24T03:42:50;101032.04;;;16.08;81.90
61478;BME280;47345;52.334;10.392;2023-08-24T03:45:22;101034.73;;;16.03;81.29
61478;BME280;47345;52.334;10.392;2023-08-24T03:47:53;101036.41;;;15.98;81.67
61478;BME280;47345;52.334;10.392;2023-08-24T03:50:24;101041.06;;;15.96;82.00
61478;BME280;47345;52.334;10.392;2023-08-24T03:52:55;101037.54;;;15.96;82.42
61478;BME280;47345;52.334;10.392;2023-08-24T03:55:26;101033.79;;;15.98;82.47
61478;BME280;47345;52.334;10.392;2023-08-24T03:57:57;101035.36;;;16.00;82.58
61478;BME280;47345;52.334;10.392;2023-08-24T04:00:28;101035.40;;;16.03;82.78
61478;BME280;47345;52.334;10.392;2023-08-24T04:03:00;101036.86;;;16.04;82.72
61478;BME280;47345;52.334;10.392;2023-08-24T04:05:32;101036.17;;;16.05;82.68
61478;BME280;47345;52.334;10.392;2023-08-24T04:08:03;101037.64;;;16.06;82.59
61478;BME280;47345;52.334;10.392;2023-08-24T04:10:34;101036.19;;;16.06;82.56
61478;BME280;47345;52.334;10.392;2023-08-24T04:13:04;101033.55;;;16.04;82.31
61478;BME280;47345;52.334;10.392;2023-08-24T04:15:36;101040.07;;;16.02;82.15
61478;BME280;47345;52.334;10.392;2023-08-24T04:18:07;101038.96;;;16.00;82.14
61478;BME280;47345;52.334;10.392;2023-08-24T04:20:38;101043.05;;;15.99;81.99
61478;BME280;47345;52.334;10.392;2023-08-24T04:23:09;101049.49;;;16.00;82.31
61478;BME280;47345;52.334;10.392;2023-08-24T04:25:41;101046.16;;;16.01;82.16
61478;BME280;47345;52.334;10.392;2023-08-24T04:28:13;101046.59;;;16.01;81.76
61478;BME280;47345;52.334;10.392;2023-08-24T04:30:50;101052.80;;;15.98;81.40
61478;BME280;47345;52.334;10.392;2023-08-24T04:33:21;101052.87;;;15.98;81.78
61478;BME280;47345;52.334;10.392;2023-08-24T04:35:52;101052.28;;;16.01;81.36
61478;BME280;47345;52.334;10.392;2023-08-24T04:38:23;101055.52;;;16.02;81.08
61478;BME280;47345;52.334;10.392;2023-08-24T04:40:55;101064.58;;;16.05;80.64
61478;BME280;47345;52.334;10.392;2023-08-24T04:43:26;101069.11;;;16.05;80.75
61478;BME280;47345;52.334;10.392;2023-08-24T04:45:57;101072.02;;;16.09;81.26
61478;BME280;47345;52.334;10.392;2023-08-24T04:48:28;101074.31;;;16.18;81.34
61478;BME280;47345;52.334;10.392;2023-08-24T04:51:01;101069.84;;;16.29;81.76
61478;BME280;47345;52.334;10.392;2023-08-24T04:53:32;101061.83;;;16.41;81.59
61478;BME280;47345;52.334;10.392;2023-08-24T04:56:03;101063.05;;;16.53;81.34
61478;BME280;47345;52.334;10.392;2023-08-24T04:58:35;101066.79;;;16.66;81.12
61478;BME280;47345;52.334;10.392;2023-08-24T05:01:06;101062.58;;;16.85;80.87
61478;BME280;47345;52.334;10.392;2023-08-24T05:03:37;101064.17;;;17.04;80.61
61478;BME280;47345;52.334;10.392;2023-08-24T05:06:08;101073.73;;;17.23;79.50
61478;BME280;47345;52.334;10.392;2023-08-24T05:08:38;101084.13;;;17.32;78.61
61478;BME280;47345;52.334;10.392;2023-08-24T05:11:13;101083.73;;;17.39;78.46
61478;BME280;47345;52.334;10.392;2023-08-24T05:13:44;101071.77;;;17.53;78.63
61478;BME280;47345;52.334;10.392;2023-08-24T05:16:15;101072.27;;;17.67;78.70
61478;BME280;47345;52.334;10.392;2023-08-24T05:18:46;101078.19;;;17.85;78.27
61478;BME280;47345;52.334;10.392;2023-08-24T05:21:17;101079.27;;;17.97;77.80
61478;BME280;47345;52.334;10.392;2023-08-24T05:23:48;101085.44;;;18.11;77.92
61478;BME280;47345;52.334;10.392;2023-08-24T05:26:19;101089.40;;;18.25;78.33
61478;BME280;47345;52.334;10.392;2023-08-24T05:28:55;101094.56;;;18.42;78.43
61478;BME280;47345;52.334;10.392;2023-08-24T05:31:25;101090.47;;;18.60;78.27
61478;BME280;47345;52.334;10.392;2023-08-24T05:33:56;101082.10;;;18.76;77.95
61478;BME280;47345;52.334;10.392;2023-08-24T05:36:27;101083.13;;;18.92;77.58
61478;BME280;47345;52.334;10.392;2023-08-24T05:38:57;101081.63;;;19.06;77.08
61478;BME280;47345;52.334;10.392;2023-08-24T05:41:35;101073.70;;;19.15;76.83
61478;BME280;47345;52.334;10.392;2023-08-24T05:44:06;101076.81;;;19.20;76.94
61478;BME280;47345;52.334;10.392;2023-08-24T05:46:37;101080.98;;;19.24;76.88
61478;BME280;47345;52.334;10.392;2023-08-24T05:49:07;101078.96;;;19.28;76.94
61478;BME280;47345;52.334;10.392;2023-08-24T05:51:39;101073.31;;;19.31;77.27
61478;BME280;47345;52.334;10.392;2023-08-24T05:54:10;101062.71;;;19.36;77.27
61478;BME280;47345;52.334;10.392;2023-08-24T05:56:42;101062.03;;;19.39;76.79
61478;BME280;47345;52.334;10.392;2023-08-24T05:59:13;101061.98;;;19.41;76.51
61478;BME280;47345;52.334;10.392;2023-08-24T06:01:44;101064.64;;;19.43;76.41
61478;BME280;47345;52.334;10.392;2023-08-24T06:04:14;101070.95;;;19.48;76.34
61478;BME280;47345;52.334;10.392;2023-08-24T06:06:45;101076.95;;;19.57;76.26
61478;BME280;47345;52.334;10.392;2023-08-24T06:09:16;101076.26;;;19.67;76.21
61478;BME280;47345;52.334;10.392;2023-08-24T06:11:47;101078.95;;;19.79;76.26
61478;BME280;47345;52.334;10.392;2023-08-24T06:14:17;101078.38;;;19.91;76.15
61478;BME280;47345;52.334;10.392;2023-08-24T06:16:49;101077.85;;;19.98;76.30
61478;BME280;47345;52.334;10.392;2023-08-24T06:19:23;101074.77;;;20.02;76.22
61478;BME280;47345;52.334;10.392;2023-08-24T06:21:53;101064.76;;;20.06;75.96
61478;BME280;47345;52.334;10.392;2023-08-24T06:24:24;101059.11;;;20.09;75.67
61478;BME280;47345;52.334;10.392;2023-08-24T06:26:55;101054.27;;;20.06;75.45
61478;BME280;47345;52.334;10.392;2023-08-24T06:29:26;101054.29;;;20.02;75.53
61478;BME280;47345;52.334;10.392;2023-08-24T06:31:57;101054.20;;;19.99;75.16
61478;BME280;47345;52.334;10.392;2023-08-24T06:34:28;101048.30;;;19.98;75.18
61478;BME280;47345;52.334;10.392;2023-08-24T06:37:02;101040.70;;;19.98;75.30
61478;BME280;47345;52.334;10.392;2023-08-24T06:39:33;101033.08;;;20.02;75.30
61478;BME280;47345;52.334;10.392;2023-08-24T06:42:04;101028.91;;;20.02;75.16
61478;BME280;47345;52.334;10.392;2023-08-24T06:44:35;101025.86;;;20.02;75.12
61478;BME280;47345;52.334;10.392;2023-08-24T06:47:06;101028.30;;;20.01;75.32
61478;BME280;47345;52.334;10.392;2023-08-24T06:49:37;101033.31;;;20.04;75.16
61478;BME280;47345;52.334;10.392;2023-08-24T06:52:08;101033.91;;;20.10;75.06
61478;BME280;47345;52.334;10.392;2023-08-24T06:54:39;101030.48;;;20.19;74.75
61478;BME280;47345;52.334;10.392;2023-08-24T06:57:10;101027.77;;;20.26;74.61
61478;BME280;47345;52.334;10.392;2023-08-24T06:59:41;101023.52;;;20.30;74.64
61478;BME280;47345;52.334;10.392;2023-08-24T07:02:11;101014.94;;;20.34;74.49
61478;BME280;47345;52.334;10.392;2023-08-24T07:04:42;101008.02;;;20.37;74.72
61478;BME280;47345;52.334;10.392;2023-08-24T07:07:13;101010.24;;;20.38;74.50
61478;BME280;47345;52.334;10.392;2023-08-24T07:09:44;101006.65;;;20.41;74.35
61478;BME280;47345;52.334;10.392;2023-08-24T07:12:15;101003.14;;;20.49;74.11
61478;BME280;47345;52.334;10.392;2023-08-24T07:14:46;101000.71;;;20.59;73.91
61478;BME280;47345;52.334;10.392;2023-08-24T07:17:18;100998.04;;;20.70;73.87
61478;BME280;47345;52.334;10.392;2023-08-24T07:19:48;100994.71;;;20.87;74.10
61478;BME280;47345;52.334;10.392;2023-08-24T07:22:20;100991.77;;;21.01;73.68
61478;BME280;47345;52.334;10.392;2023-08-24T07:24:50;100998.67;;;21.12;73.30
61478;BME280;47345;52.334;10.392;2023-08-24T07:27:22;101005.14;;;21.22;72.69
61478;BME280;47345;52.334;10.392;2023-08-24T07:29:53;101003.94;;;21.28;72.44
61478;BME280;47345;52.334;10.392;2023-08-24T07:32:23;101004.68;;;21.35;72.01
61478;BME280;47345;52.334;10.392;2023-08-24T07:34:54;101001.42;;;21.45;72.18
61478;BME280;47345;52.334;10.392;2023-08-24T07:37:26;101006.64;;;21.55;72.07
61478;BME280;47345;52.334;10.392;2023-08-24T07:39:57;101010.08;;;21.69;72.04
61478;BME280;47345;52.334;10.392;2023-08-24T07:42:28;101011.49;;;21.96;71.83
61478;BME280;47345;52.334;10.392;2023-08-24T07:44:59;101014.84;;;22.25;70.61
61478;BME280;47345;52.334;10.392;2023-08-24T07:47:29;101011.31;;;22.53;69.98
61478;BME280;47345;52.334;10.392;2023-08-24T07:50:00;101011.48;;;22.75;68.95
61478;BME280;47345;52.334;10.392;2023-08-24T07:52:31;101006.61;;;22.97;67.77
61478;BME280;47345;52.334;10.392;2023-08-24T07:55:02;101002.42;;;23.11;66.82
61478;BME280;47345;52.334;10.392;2023-08-24T07:57:33;101000.67;;;23.22;67.30
61478;BME280;47345;52.334;10.392;2023-08-24T08:00:06;100999.40;;;23.32;66.63
61478;BME280;47345;52.334;10.392;2023-08-24T08:02:38;100993.94;;;23.39;66.29
61478;BME280;47345;52.334;10.392;2023-08-24T08:05:09;100986.07;;;23.49;66.60
61478;BME280;47345;52.334;10.392;2023-08-24T08:07:42;100981.92;;;23.60;66.02
61478;BME280;47345;52.334;10.392;2023-08-24T08:10:13;100978.45;;;23.70;65.68
61478;BME280;47345;52.334;10.392;2023-08-24T08:12:45;100976.23;;;23.75;65.35
61478;BME280;47345;52.334;10.392;2023-08-24T08:15:16;100976.10;;;23.84;65.27
61478;BME280;47345;52.334;10.392;2023-08-24T08:17:47;100971.39;;;23.92;65.10
61478;BME280;47345;52.334;10.392;2023-08-24T08:20:19;100967.92;;;24.02;65.11
61478;BME280;47345;52.334;10.392;2023-08-24T08:22:50;100966.31;;;24.13;64.98
61478;BME280;47345;52.334;10.392;2023-08-24T08:25:21;100963.37;;;24.24;64.28
61478;BME280;47345;52.334;10.392;2023-08-24T08:27:52;100960.13;;;24.36;63.58
61478;BME280;47345;52.334;10.392;2023-08-24T08:30:23;100957.81;;;24.47;62.97
61478;BME280;47345;52.334;10.392;2023-08-24T08:32:54;100963.91;;;24.57;62.42
61478;BME280;47345;52.334;10.392;2023-08-24T08:35:25;100964.95;;;24.68;62.85
61478;BME280;47345;52.334;10.392;2023-08-24T08:37:56;100961.16;;;24.76;61.88
61478;BME280;47345;52.334;10.392;2023-08-24T08:40:29;100955.48;;;24.83;61.22
61478;BME280;47345;52.334;10.392;2023-08-24T08:43:01;100951.52;;;24.91;60.88
61478;BME280;47345;52.334;10.392;2023-08-24T08:45:32;100949.13;;;24.96;59.99
61478;BME280;47345;52.334;10.392;2023-08-24T08:48:04;100947.61;;;24.97;59.69
61478;BME280;47345;52.334;10.392;2023-08-24T08:50:35;100954.77;;;24.99;59.77
61478;BME280;47345;52.334;10.392;2023-08-24T08:53:07;100954.56;;;25.01;59.31
61478;BME280;47345;52.334;10.392;2023-08-24T08:55:38;100956.15;;;25.03;59.67
61478;BME280;47345;52.334;10.392;2023-08-24T08:58:09;100952.60;;;25.05;59.87
61478;BME280;47345;52.334;10.392;2023-08-24T09:00:42;100954.15;;;25.11;59.42
61478;BME280;47345;52.334;10.392;2023-08-24T09:03:13;100951.89;;;25.13;59.69
61478;BME280;47345;52.334;10.392;2023-08-24T09:05:45;100948.24;;;25.17;60.96
61478;BME280;47345;52.334;10.392;2023-08-24T09:08:18;100948.48;;;25.29;60.94
61478;BME280;47345;52.334;10.392;2023-08-24T09:10:49;100949.47;;;25.42;60.18
61478;BME280;47345;52.334;10.392;2023-08-24T09:13:20;100941.77;;;25.53;59.88
61478;BME280;47345;52.334;10.392;2023-08-24T09:15:52;100943.84;;;25.63;59.39
61478;BME280;47345;52.334;10.392;2023-08-24T09:18:23;100945.16;;;25.72;59.24
61478;BME280;47345;52.334;10.392;2023-08-24T09:21:09;100950.77;;;25.78;59.13
61478;BME280;47345;52.334;10.392;2023-08-24T09:23:44;100947.70;;;25.88;59.22
61478;BME280;47345;52.334;10.392;2023-08-24T09:26:16;100948.19;;;26.01;57.96
61478;BME280;47345;52.334;10.392;2023-08-24T09:28:46;100951.50;;;26.10;57.99
61478;BME280;47345;52.334;10.392;2023-08-24T09:31:17;100952.55;;;26.19;57.43
61478;BME280;47345;52.334;10.392;2023-08-24T09:33:48;100946.08;;;26.21;56.56
61478;BME280;47345;52.334;10.392;2023-08-24T09:36:19;100945.85;;;26.24;55.46
61478;BME280;47345;52.334;10.392;2023-08-24T09:38:49;100944.25;;;26.26;56.73
61478;BME280;47345;52.334;10.392;2023-08-24T09:41:22;100943.92;;;26.34;57.03
61478;BME280;47345;52.334;10.392;2023-08-24T09:43:53;100940.88;;;26.44;58.11
61478;BME280;47345;52.334;10.392;2023-08-24T09:46:25;100938.16;;;26.50;58.30
61478;BME280;47345;52.334;10.392;2023-08-24T09:48:56;100929.77;;;26.60;57.03
61478;BME280;47345;52.334;10.392;2023-08-24T09:51:30;100915.70;;;26.71;56.10
61478;BME280;47345;52.334;10.392;2023-08-24T09:54:05;100914.38;;;26.77;56.37
61478;BME280;47345;52.334;10.392;2023-08-24T09:56:39;100915.52;;;26.89;55.68
61478;BME280;47345;52.334;10.392;2023-08-24T09:59:16;100912.91;;;27.02;56.45
61478;BME280;47345;52.334;10.392;2023-08-24T10:01:49;100911.02;;;27.16;55.14
61478;BME280;47345;52.334;10.392;2023-08-24T10:04:24;100902.27;;;27.23;54.34
61478;BME280;47345;52.334;10.392;2023-08-24T10:06:58;100901.95;;;27.32;54.46
61478;BME280;47345;52.334;10.392;2023-08-24T10:09:38;100897.06;;;27.40;53.99
61478;BME280;47345;52.334;10.392;2023-08-24T10:12:12;100885.91;;;27.51;54.46
61478;BME280;47345;52.334;10.392;2023-08-24T10:14:47;100877.02;;;27.61;53.77
61478;BME280;47345;52.334;10.392;2023-08-24T10:17:24;100871.89;;;27.77;53.79
61478;BME280;47345;52.334;10.392;2023-08-24T10:19:57;100869.92;;;27.91;53.39
61478;BME280;47345;52.334;10.392;2023-08-24T10:22:30;100871.30;;;28.03;52.20
61478;BME280;47345;52.334;10.392;2023-08-24T10:25:01;100865.12;;;28.11;52.16
61478;BME280;47345;52.334;10.392;2023-08-24T10:27:33;100863.35;;;28.19;52.20
61478;BME280;47345;52.334;10.392;2023-08-24T10:30:05;100861.20;;;28.25;53.77
61478;BME280;47345;52.334;10.392;2023-08-24T10:32:36;100858.23;;;28.32;51.83
61478;BME280;47345;52.334;10.392;2023-08-24T10:35:09;100851.34;;;28.34;50.99
61478;BME280;47345;52.334;10.392;2023-08-24T10:37:45;100840.39;;;28.34;50.36
61478;BME280;47345;52.334;10.392;2023-08-24T10:40:32;100837.55;;;28.38;50.33
61478;BME280;47345;52.334;10.392;2023-08-24T10:43:05;100840.45;;;28.43;51.55
61478;BME280;47345;52.334;10.392;2023-08-24T10:45:58;100829.92;;;28.45;52.20
61478;BME280;47345;52.334;10.392;2023-08-24T10:48:31;100822.34;;;28.43;50.98
61478;BME280;47345;52.334;10.392;2023-08-24T10:51:24;100815.14;;;28.52;51.00
61478;BME280;47345;52.334;10.392;2023-08-24T10:53:58;100811.05;;;28.59;50.86
61478;BME280;47345;52.334;10.392;2023-08-24T10:56:37;100810.01;;;28.60;51.38
61478;BME280;47345;52.334;10.392;2023-08-24T10:59:14;100806.15;;;28.64;51.16
61478;BME280;47345;52.334;10.392;2023-08-24T11:01:55;100807.52;;;28.66;50.31
61478;BME280;47345;52.334;10.392;2023-08-24T11:04:28;100807.77;;;28.64;50.14
61478;BME280;47345;52.334;10.392;2023-08-24T11:06:59;100808.91;;;28.68;49.83
61478;BME280;47345;52.334;10.392;2023-08-24T11:09:48;100810.87;;;28.82;49.38
61478;BME280;47345;52.334;10.392;2023-08-24T11:12:18;100810.15;;;29.04;49.02
61478;BME280;47345;52.334;10.392;2023-08-24T11:14:52;100806.67;;;29.21;48.90
61478;BME280;47345;52.334;10.392;2023-08-24T11:17:31;100802.67;;;29.37;47.51
61478;BME280;47345;52.334;10.392;2023-08-24T11:20:02;100802.88;;;29.52;46.97
61478;BME280;47345;52.334;10.392;2023-08-24T11:22:36;100804.52;;;29.68;46.82
61478;BME280;47345;52.334;10.392;2023-08-24T11:25:12;100800.88;;;29.76;47.24
61478;BME280;47345;52.334;10.392;2023-08-24T11:27:44;100798.95;;;29.78;46.73
61478;BME280;47345;52.334;10.392;2023-08-24T11:30:17;100801.77;;;29.78;46.96
61478;BME280;47345;52.334;10.392;2023-08-24T11:32:53;100805.57;;;29.80;47.49
61478;BME280;47345;52.334;10.392;2023-08-24T11:35:24;100799.52;;;29.87;47.17
61478;BME280;47345;52.334;10.392;2023-08-24T11:37:56;100797.57;;;30.04;46.82
61478;BME280;47345;52.334;10.392;2023-08-24T11:40:27;100794.42;;;30.22;45.94
61478;BME280;47345;52.334;10.392;2023-08-24T11:42:58;100791.15;;;30.37;45.48
61478;BME280;47345;52.334;10.392;2023-08-24T11:45:32;100796.40;;;30.51;45.98
61478;BME280;47345;52.334;10.392;2023-08-24T11:48:05;100793.84;;;30.65;45.89
61478;BME280;47345;52.334;10.392;2023-08-24T11:50:37;100792.27;;;30.84;45.47
61478;BME280;47345;52.334;10.392;2023-08-24T11:53:09;100786.56;;;31.03;46.73
61478;BME280;47345;52.334;10.392;2023-08-24T11:55:42;100775.46;;;31.20;45.42
61478;BME280;47345;52.334;10.392;2023-08-24T11:58:33;100773.44;;;31.40;44.40
61478;BME280;47345;52.334;10.392;2023-08-24T12:01:04;100763.05;;;31.57;43.18
61478;BME280;47345;52.334;10.392;2023-08-24T12:03:36;100748.34;;;31.64;43.22
61478;BME280;47345;52.334;10.392;2023-08-24T12:06:12;100734.95;;;31.62;43.54
61478;BME280;47345;52.334;10.392;2023-08-24T12:08:44;100732.28;;;31.55;43.64
61478;BME280;47345;52.334;10.392;2023-08-24T12:11:17;100726.06;;;31.52;42.85
61478;BME280;47345;52.334;10.392;2023-08-24T12:13:51;100719.69;;;31.50;42.80
61478;BME280;47345;52.334;10.392;2023-08-24T12:16:23;100718.61;;;31.47;43.03
61478;BME280;47345;52.334;10.392;2023-08-24T12:18:55;100719.28;;;31.34;44.08
61478;BME280;47345;52.334;10.392;2023-08-24T12:21:27;100723.67;;;31.25;43.34
61478;BME280;47345;52.334;10.392;2023-08-24T12:24:00;100721.30;;;31.22;43.76
61478;BME280;47345;52.334;10.392;2023-08-24T12:26:32;100718.55;;;31.21;44.60
61478;BME280;47345;52.334;10.392;2023-08-24T12:29:05;100703.41;;;31.20;43.56
61478;BME280;47345;52.334;10.392;2023-08-24T12:31:36;100696.56;;;31.23;43.65
61478;BME280;47345;52.334;10.392;2023-08-24T12:34:15;100687.73;;;31.27;43.68
61478;BME280;47345;52.334;10.392;2023-08-24T12:36:46;100680.23;;;31.36;44.37
61478;BME280;47345;52.334;10.392;2023-08-24T12:39:17;100673.23;;;31.45;41.88
61478;BME280;47345;52.334;10.392;2023-08-24T12:41:49;100675.34;;;31.52;42.20
61478;BME280;47345;52.334;10.392;2023-08-24T12:44:20;100671.65;;;31.60;40.33
61478;BME280;47345;52.334;10.392;2023-08-24T12:46:51;100670.12;;;31.60;38.80
61478;BME280;47345;52.334;10.392;2023-08-24T12:49:22;100666.66;;;31.63;39.70
61478;BME280;47345;52.334;10.392;2023-08-24T12:51:53;100663.84;;;31.68;40.65
61478;BME280;47345;52.334;10.392;2023-08-24T12:54:23;100655.67;;;31.73;39.92
61478;BME280;47345;52.334;10.392;2023-08-24T12:56:54;100647.73;;;31.76;39.57
61478;BME280;47345;52.334;10.392;2023-08-24T12:59:25;100647.45;;;31.73;38.98
61478;BME280;47345;52.334;10.392;2023-08-24T13:01:56;100644.27;;;31.70;38.09
61478;BME280;47345;52.334;10.392;2023-08-24T13:04:27;100638.52;;;31.68;37.99